createdAt,value
2022-08-30T00:03:48.118Z,100.00
2022-08-30T00:07:50.366Z,100.00
2022-08-30T00:11:52.764Z,100.00
2022-08-30T00:15:54.906Z,100.00
2022-08-30T00:19:57.047Z,100.00
2022-08-30T00:23:59.334Z,100.00
2022-08-30T00:28:02.620Z,100.00
2022-08-30T00:32:05.698Z,100.00
2022-08-30T00:36:07.890Z,100.00
2022-08-30T00:40:12.275Z,100.00
2022-08-30T00:44:14.811Z,100.00
2022-08-30T00:48:16.873Z,100.00
2022-08-30T00:52:21.239Z,100.00
2022-08-30T00:56:25.400Z,100.00
2022-08-30T01:00:27.615Z,100.00
2022-08-30T01:04:31.474Z,100.00
2022-08-30T01:08:33.972Z,100.00
2022-08-30T01:12:38.768Z,100.00
2022-08-30T01:16:43.502Z,100.00
2022-08-30T01:20:49.604Z,100.00
2022-08-30T01:24:54.858Z,100.00
2022-08-30T01:29:02.378Z,100.00
2022-08-30T01:33:06.525Z,100.00
2022-08-30T01:37:08.889Z,100.00
2022-08-30T01:41:15.606Z,100.00
2022-08-30T01:45:18.493Z,100.00
2022-08-30T01:49:27.617Z,100.00
2022-08-30T01:53:31.560Z,100.00
2022-08-30T01:57:33.594Z,100.00
2022-08-30T02:01:37.408Z,100.00
2022-08-30T02:05:39.653Z,100.00
2022-08-30T02:09:41.878Z,100.00
2022-08-30T02:13:45.879Z,100.00
2022-08-30T02:17:47.984Z,100.00
2022-08-30T02:21:50.114Z,100.00
2022-08-30T02:25:52.175Z,100.00
2022-08-30T02:29:54.652Z,100.00
2022-08-30T02:33:56.840Z,100.00
2022-08-30T02:37:58.917Z,100.00
2022-08-30T02:42:01.005Z,100.00
2022-08-30T02:46:03.721Z,100.00
2022-08-30T02:50:08.337Z,100.00
2022-08-30T02:54:10.909Z,100.00
2022-08-30T02:58:13.291Z,100.00
2022-08-30T03:02:16.262Z,100.00
2022-08-30T03:06:19.271Z,100.00
2022-08-30T03:10:21.538Z,100.00
2022-08-30T03:14:24.131Z,100.00
2022-08-30T03:18:26.823Z,100.00
2022-08-30T03:22:29.764Z,100.00
2022-08-30T03:26:31.826Z,100.00
2022-08-30T03:30:34.556Z,100.00
2022-08-30T03:34:36.632Z,100.00
2022-08-30T03:38:39.637Z,100.00
2022-08-30T03:42:43.336Z,100.00
2022-08-30T03:46:46.661Z,100.00
2022-08-30T03:50:48.919Z,100.00
2022-08-30T03:54:50.990Z,100.00
2022-08-30T03:58:53.238Z,100.00
2022-08-30T04:02:55.524Z,100.00
2022-08-30T04:06:57.775Z,100.00
2022-08-30T04:11:01.151Z,100.00
2022-08-30T04:15:04.755Z,100.00
2022-08-30T04:19:07.711Z,100.00
2022-08-30T04:23:11.917Z,100.00
2022-08-30T04:27:14.111Z,100.00
2022-08-30T04:31:17.745Z,100.00
2022-08-30T04:35:21.492Z,100.00
2022-08-30T04:39:23.828Z,100.00
2022-08-30T04:43:26.896Z,100.00
2022-08-30T04:47:28.970Z,100.00
2022-08-30T04:51:31.622Z,100.00
2022-08-30T04:55:33.722Z,100.00
2022-08-30T04:59:35.889Z,100.00
2022-08-30T05:03:37.925Z,100.00
2022-08-30T05:07:40.465Z,100.00
2022-08-30T05:11:43.461Z,100.00
2022-08-30T05:15:46.135Z,100.00
2022-08-30T05:19:48.207Z,100.00
2022-08-30T05:23:50.895Z,100.00
2022-08-30T05:27:53.960Z,100.00
2022-08-30T05:31:56.517Z,100.00
2022-08-30T05:35:58.705Z,100.00
2022-08-30T05:40:07.648Z,100.00
2022-08-30T05:44:13.347Z,100.00
2022-08-30T05:48:15.514Z,100.00
2022-08-30T05:52:18.342Z,100.00
2022-08-30T05:56:24.782Z,100.00
2022-08-30T06:00:30.392Z,100.00
2022-08-30T06:04:32.492Z,100.00
2022-08-30T06:08:34.711Z,100.00
2022-08-30T06:12:36.768Z,100.00
2022-08-30T06:16:40.434Z,100.00
2022-08-30T06:20:43.725Z,100.00
2022-08-30T06:25:01.145Z,100.00
2022-08-30T06:29:04.101Z,100.00
2022-08-30T06:33:06.450Z,100.00
2022-08-30T06:37:08.866Z,100.00
2022-08-30T06:41:25.670Z,100.00
2022-08-30T06:45:28.279Z,100.00
2022-08-30T06:49:31.456Z,100.00
2022-08-30T06:53:35.017Z,100.00
2022-08-30T06:57:37.305Z,100.00
2022-08-30T07:01:41.629Z,100.00
2022-08-30T07:05:47.303Z,100.00
2022-08-30T07:09:50.101Z,100.00
2022-08-30T07:13:52.436Z,100.00
2022-08-30T07:18:13.786Z,100.00
2022-08-30T07:22:20.254Z,100.00
2022-08-30T07:26:31.962Z,100.00
2022-08-30T07:30:36.508Z,100.00
2022-08-30T07:34:40.435Z,100.00
2022-08-30T07:38:53.247Z,100.00
2022-08-30T07:43:04.503Z,100.00
2022-08-30T07:47:12.232Z,100.00
2022-08-30T07:51:20.602Z,100.00
2022-08-30T07:55:24.727Z,100.00
2022-08-30T07:59:39.311Z,100.00
2022-08-30T08:03:52.434Z,100.00
2022-08-30T08:07:57.521Z,100.00
2022-08-30T08:12:04.847Z,100.00
2022-08-30T08:16:08.532Z,100.00
2022-08-30T08:20:11.647Z,100.00
2022-08-30T08:24:17.253Z,100.00
2022-08-30T08:28:21.183Z,100.00
2022-08-30T08:32:24.985Z,100.00
2022-08-30T08:36:30.855Z,100.00
2022-08-30T08:40:44.505Z,100.00
2022-08-30T08:45:11.571Z,100.00
2022-08-30T08:49:16.576Z,100.00
2022-08-30T08:53:52.478Z,100.00
2022-08-30T08:57:57.781Z,100.00
2022-08-30T09:02:09.199Z,100.00
2022-08-30T09:06:35.682Z,100.00
2022-08-30T09:10:51.038Z,100.00
2022-08-30T09:14:58.776Z,100.00
2022-08-30T09:19:01.795Z,100.00
2022-08-30T09:23:28.378Z,100.00
2022-08-30T09:27:40.470Z,100.00
2022-08-30T09:32:22.454Z,100.00
2022-08-30T09:36:27.023Z,100.00
2022-08-30T09:40:44.485Z,100.00
2022-08-30T09:44:49.639Z,100.00
2022-08-30T09:48:54.788Z,100.00
2022-08-30T09:53:13.792Z,100.00
2022-08-30T09:57:33.523Z,97.53
2022-08-30T10:01:48.696Z,94.62
2022-08-30T10:06:10.963Z,99.35
2022-08-30T10:10:34.566Z,86.19
2022-08-30T10:14:49.281Z,90.77
2022-08-30T10:19:10.857Z,86.85
2022-08-30T10:23:21.906Z,88.12
2022-08-30T10:27:34.592Z,80.77
2022-08-30T10:31:59.512Z,66.61
2022-08-30T10:36:10.304Z,81.98
2022-08-30T10:40:44.079Z,77.67
2022-08-30T10:44:51.209Z,79.50
2022-08-30T10:48:56.921Z,76.72
2022-08-30T10:53:10.662Z,71.70
2022-08-30T10:57:13.120Z,67.54
2022-08-30T11:01:46.481Z,71.34
2022-08-30T11:05:58.332Z,68.85
2022-08-30T11:10:22.363Z,69.09
2022-08-30T11:14:25.866Z,79.54
2022-08-30T11:18:46.112Z,75.96
2022-08-30T11:23:33.536Z,62.63
2022-08-30T11:27:59.825Z,66.67
2022-08-30T11:32:14.452Z,64.32
2022-08-30T11:36:37.332Z,66.20
2022-08-30T11:40:46.352Z,64.69
2022-08-30T11:44:49.261Z,71.93
2022-08-30T11:49:13.115Z,68.61
2022-08-30T11:53:47.263Z,60.32
2022-08-30T11:57:59.286Z,67.34
2022-08-30T12:02:02.493Z,65.71
2022-08-30T12:06:06.834Z,64.02
2022-08-30T12:10:25.695Z,53.90
2022-08-30T12:14:37.570Z,57.66
2022-08-30T12:18:48.585Z,56.75
2022-08-30T12:23:00.030Z,56.80
2022-08-30T12:27:32.771Z,49.48
2022-08-30T12:31:58.374Z,49.98
2022-08-30T12:36:36.608Z,47.46
2022-08-30T12:40:50.951Z,40.58
2022-08-30T12:44:56.818Z,47.54
2022-08-30T12:53:56.792Z,47.36
2022-08-30T12:58:09.521Z,46.56
2022-08-30T13:02:26.575Z,44.60
2022-08-30T13:06:44.128Z,45.49
2022-08-30T13:11:04.378Z,42.77
2022-08-30T13:15:28.840Z,46.94
2022-08-30T13:19:34.360Z,46.86
2022-08-30T13:23:36.836Z,49.40
2022-08-30T13:27:40.254Z,50.95
2022-08-30T13:31:42.831Z,52.40
2022-08-30T13:35:45.991Z,53.50
2022-08-30T13:39:49.466Z,56.46
2022-08-30T13:44:11.741Z,55.67
2022-08-30T13:48:17.448Z,57.16
2022-08-30T13:52:28.831Z,57.43
2022-08-30T13:56:32.756Z,58.94
2022-08-30T14:00:38.118Z,56.51
2022-08-30T14:04:42.677Z,58.29
2022-08-30T14:08:47.850Z,60.23
2022-08-30T14:12:53.266Z,61.55
2022-08-30T14:16:56.445Z,61.99
2022-08-30T14:21:03.065Z,61.00
2022-08-30T14:25:21.795Z,55.08
2022-08-30T14:29:29.951Z,53.47
2022-08-30T14:33:35.381Z,52.71
2022-08-30T14:37:39.503Z,50.68
2022-08-30T14:41:45.915Z,49.26
2022-08-30T14:45:49.495Z,48.91
2022-08-30T14:49:54.053Z,48.87
2022-08-30T14:53:56.655Z,47.81
2022-08-30T14:58:00.086Z,45.76
2022-08-30T15:02:02.767Z,44.03
2022-08-30T15:06:06.628Z,44.09
2022-08-30T15:10:10.019Z,43.87
2022-08-30T15:14:15.953Z,43.10
2022-08-30T15:18:19.269Z,42.75
2022-08-30T15:22:21.490Z,43.24
2022-08-30T15:26:24.561Z,42.00
2022-08-30T15:30:27.309Z,41.25
2022-08-30T15:34:32.678Z,40.00
2022-08-30T15:38:37.394Z,40.76
2022-08-30T15:42:40.568Z,41.28
2022-08-30T15:46:46.095Z,39.78
2022-08-30T15:50:59.007Z,36.07
2022-08-30T15:55:01.800Z,37.04
2022-08-30T15:59:05.431Z,35.40
2022-08-30T16:03:09.587Z,34.40
2022-08-30T16:07:13.104Z,33.87
2022-08-30T16:11:18.368Z,33.51
2022-08-30T16:15:24.615Z,38.14
2022-08-30T16:19:33.256Z,40.83
2022-08-30T16:23:39.294Z,43.12
2022-08-30T16:27:43.527Z,44.79
2022-08-30T16:31:47.382Z,45.92
2022-08-30T16:35:54.500Z,48.17
2022-08-30T16:39:56.803Z,50.72
2022-08-30T16:44:00.415Z,51.71
2022-08-30T16:48:03.419Z,53.91
2022-08-30T16:52:06.054Z,54.39
2022-08-30T16:56:20.667Z,57.43
2022-08-30T17:04:40.320Z,58.14
2022-08-30T17:08:43.697Z,59.34
2022-08-30T17:12:46.610Z,59.38
2022-08-30T17:16:49.122Z,60.48
2022-08-30T17:20:51.602Z,60.27
2022-08-30T17:24:54.700Z,64.03
2022-08-30T17:28:58.367Z,62.37
2022-08-30T17:33:01.379Z,62.25
2022-08-30T17:37:04.850Z,62.58
2022-08-30T17:41:10.541Z,63.65
2022-08-30T17:45:17.084Z,64.31
2022-08-30T17:49:20.108Z,65.03
2022-08-30T17:53:25.015Z,66.30
2022-08-30T17:57:32.820Z,67.20
2022-08-30T18:01:46.793Z,68.00
2022-08-30T18:05:53.970Z,68.71
2022-08-30T18:09:58.602Z,69.98
2022-08-30T18:14:05.298Z,72.67
2022-08-30T18:18:15.590Z,75.38
2022-08-30T18:22:27.689Z,77.89
2022-08-30T18:26:35.824Z,76.46
2022-08-30T18:30:41.493Z,78.76
2022-08-30T18:35:11.817Z,82.00
2022-08-30T18:39:26.015Z,83.56
2022-08-30T18:43:38.962Z,84.54
2022-08-30T18:52:55.996Z,88.46
2022-08-30T18:57:07.747Z,86.04
2022-08-30T19:01:25.002Z,89.17
2022-08-30T19:05:46.287Z,92.10
2022-08-30T19:09:56.238Z,91.46
2022-08-30T19:14:44.161Z,98.32
2022-08-30T19:29:11.543Z,100.00
2022-08-30T19:34:17.951Z,100.00
2022-08-30T19:38:53.789Z,98.75
2022-08-30T19:43:11.246Z,100.00
2022-08-30T19:47:47.598Z,100.00
2022-08-30T19:51:58.099Z,100.00
2022-08-30T19:56:07.488Z,100.00
2022-08-30T20:01:32.524Z,100.00
2022-08-30T20:05:57.114Z,100.00
2022-08-30T20:10:20.082Z,100.00
2022-08-30T20:14:36.910Z,100.00
2022-08-30T20:24:37.774Z,100.00
2022-08-30T20:34:02.447Z,100.00
2022-08-30T20:38:24.654Z,100.00
2022-08-30T20:42:56.159Z,100.00
2022-08-30T20:47:24.468Z,100.00
2022-08-30T20:56:53.792Z,100.00
2022-08-30T21:06:48.365Z,100.00
2022-08-30T21:10:53.029Z,100.00
2022-08-30T21:14:55.499Z,100.00
2022-08-30T21:18:57.872Z,100.00
2022-08-30T21:23:00.425Z,100.00
2022-08-30T21:27:03.632Z,100.00
2022-08-30T21:31:12.781Z,100.00
2022-08-30T21:35:33.668Z,100.00
2022-08-30T21:39:35.810Z,100.00
2022-08-30T21:43:38.014Z,100.00
2022-08-30T21:47:40.335Z,100.00
2022-08-30T21:51:45.087Z,100.00
2022-08-30T21:55:48.166Z,100.00
2022-08-30T21:59:50.544Z,100.00
2022-08-30T22:03:55.041Z,100.00
2022-08-30T22:07:57.217Z,100.00
2022-08-30T22:11:59.366Z,100.00
2022-08-30T22:16:02.722Z,100.00
2022-08-30T22:20:06.978Z,100.00
2022-08-30T22:24:12.189Z,100.00
2022-08-30T22:28:15.218Z,100.00
2022-08-30T22:32:17.391Z,100.00
2022-08-30T22:36:32.793Z,100.00
2022-08-30T22:40:36.033Z,100.00
2022-08-30T22:44:39.066Z,100.00
2022-08-30T22:48:44.265Z,100.00
2022-08-30T22:52:46.677Z,100.00
2022-08-30T22:56:52.004Z,100.00
2022-08-30T23:00:55.124Z,100.00
2022-08-30T23:04:57.770Z,100.00
2022-08-30T23:09:00.403Z,100.00
2022-08-30T23:13:02.902Z,100.00
2022-08-30T23:17:05.009Z,100.00
2022-08-30T23:21:16.723Z,100.00
2022-08-30T23:25:41.496Z,100.00
2022-08-30T23:30:02.920Z,100.00
2022-08-30T23:34:25.430Z,100.00
2022-08-30T23:38:46.052Z,100.00
2022-08-30T23:43:06.619Z,100.00
2022-08-30T23:47:27.547Z,100.00
2022-08-30T23:51:53.050Z,100.00
2022-08-30T23:56:14.110Z,100.00
